sensor_id;sensor_type;location;lat;lon;timestamp;pressure;altitude;pressure_sealevel;temperature;humidity
61292;BME280;47165;42.664;23.368;2023-12-20T00:00:02;95415.41;;;2.95;65.09
61292;BME280;47165;42.664;23.368;2023-12-20T00:02:28;95405.13;;;2.92;65.46
61292;BME280;47165;42.664;23.368;2023-12-20T00:04:53;95407.69;;;2.94;65.66
61292;BME280;47165;42.664;23.368;2023-12-20T00:07:18;95400.81;;;2.93;65.79
61292;BME280;47165;42.664;23.368;2023-12-20T00:09:44;95399.03;;;2.95;65.35
61292;BME280;47165;42.664;23.368;2023-12-20T00:12:09;95397.28;;;2.97;64.51
61292;BME280;47165;42.664;23.368;2023-12-20T00:14:35;95391.28;;;2.96;65.35
61292;BME280;47165;42.664;23.368;2023-12-20T00:17:01;95396.47;;;2.95;64.84
61292;BME280;47165;42.664;23.368;2023-12-20T00:19:26;95395.66;;;2.93;64.49
61292;BME280;47165;42.664;23.368;2023-12-20T00:21:52;95393.97;;;2.92;64.54
61292;BME280;47165;42.664;23.368;2023-12-20T00:24:17;95382.72;;;2.96;64.53
61292;BME280;47165;42.664;23.368;2023-12-20T00:26:43;95387.06;;;2.92;64.41
61292;BME280;47165;42.664;23.368;2023-12-20T00:29:08;95382.84;;;2.90;65.11
61292;BME280;47165;42.664;23.368;2023-12-20T00:31:33;95383.88;;;2.81;64.94
61292;BME280;47165;42.664;23.368;2023-12-20T00:33:59;95354.75;;;2.76;65.14
61292;BME280;47165;42.664;23.368;2023-12-20T00:36:24;95375.16;;;2.87;65.46
61292;BME280;47165;42.664;23.368;2023-12-20T00:38:50;95371.97;;;2.75;64.97
61292;BME280;47165;42.664;23.368;2023-12-20T00:41:16;95364.13;;;2.80;65.33
61292;BME280;47165;42.664;23.368;2023-12-20T00:43:42;95363.16;;;2.86;65.66
61292;BME280;47165;42.664;23.368;2023-12-20T00:46:07;95361.44;;;2.85;65.23
61292;BME280;47165;42.664;23.368;2023-12-20T00:48:33;95358.81;;;2.88;65.18
61292;BME280;47165;42.664;23.368;2023-12-20T00:50:58;95353.66;;;2.88;63.65
61292;BME280;47165;42.664;23.368;2023-12-20T00:53:23;95350.91;;;2.95;64.28
61292;BME280;47165;42.664;23.368;2023-12-20T00:55:49;95350.69;;;3.05;64.01
61292;BME280;47165;42.664;23.368;2023-12-20T00:58:15;95342.84;;;3.09;63.63
61292;BME280;47165;42.664;23.368;2023-12-20T01:00:40;95344.44;;;3.16;63.50
61292;BME280;47165;42.664;23.368;2023-12-20T01:03:08;95340.88;;;3.22;63.58
61292;BME280;47165;42.664;23.368;2023-12-20T01:05:33;95339.00;;;3.27;61.92
61292;BME280;47165;42.664;23.368;2023-12-20T01:07:59;95332.03;;;3.32;61.63
61292;BME280;47165;42.664;23.368;2023-12-20T01:10:25;95323.31;;;3.36;61.50
61292;BME280;47165;42.664;23.368;2023-12-20T01:12:53;95328.34;;;3.42;60.88
61292;BME280;47165;42.664;23.368;2023-12-20T01:15:18;95323.09;;;3.46;61.39
61292;BME280;47165;42.664;23.368;2023-12-20T01:17:44;95324.81;;;3.47;61.13
61292;BME280;47165;42.664;23.368;2023-12-20T01:20:09;95315.16;;;3.53;61.41
61292;BME280;47165;42.664;23.368;2023-12-20T01:22:35;95322.78;;;3.58;61.21
61292;BME280;47165;42.664;23.368;2023-12-20T01:25:01;95309.91;;;3.56;59.53
61292;BME280;47165;42.664;23.368;2023-12-20T01:27:27;95303.91;;;3.56;59.46
61292;BME280;47165;42.664;23.368;2023-12-20T01:29:53;95305.63;;;3.57;59.61
61292;BME280;47165;42.664;23.368;2023-12-20T01:32:19;95307.19;;;3.62;59.38
61292;BME280;47165;42.664;23.368;2023-12-20T01:34:44;95298.72;;;3.57;59.28
61292;BME280;47165;42.664;23.368;2023-12-20T01:37:10;95297.09;;;3.53;59.15
61292;BME280;47165;42.664;23.368;2023-12-20T01:39:35;95285.19;;;3.48;58.85
61292;BME280;47165;42.664;23.368;2023-12-20T01:42:01;95288.03;;;3.37;58.76
61292;BME280;47165;42.664;23.368;2023-12-20T01:44:27;95286.63;;;3.23;58.95
61292;BME280;47165;42.664;23.368;2023-12-20T01:46:53;95275.53;;;3.20;59.42
61292;BME280;47165;42.664;23.368;2023-12-20T01:49:18;95274.25;;;3.00;61.32
61292;BME280;47165;42.664;23.368;2023-12-20T01:51:44;95277.75;;;2.99;61.49
61292;BME280;47165;42.664;23.368;2023-12-20T01:54:10;95265.72;;;2.98;62.35
61292;BME280;47165;42.664;23.368;2023-12-20T01:56:36;95252.28;;;2.84;61.34
61292;BME280;47165;42.664;23.368;2023-12-20T01:59:02;95266.00;;;2.86;61.55
61292;BME280;47165;42.664;23.368;2023-12-20T02:01:28;95263.66;;;2.75;61.19
61292;BME280;47165;42.664;23.368;2023-12-20T02:03:54;95267.97;;;2.75;61.00
61292;BME280;47165;42.664;23.368;2023-12-20T02:06:21;95256.66;;;2.80;60.88
61292;BME280;47165;42.664;23.368;2023-12-20T02:08:50;95255.97;;;2.74;61.15
61292;BME280;47165;42.664;23.368;2023-12-20T02:11:16;95253.59;;;2.65;61.17
61292;BME280;47165;42.664;23.368;2023-12-20T02:13:41;95248.72;;;2.52;61.39
61292;BME280;47165;42.664;23.368;2023-12-20T02:16:07;95253.06;;;2.50;61.44
61292;BME280;47165;42.664;23.368;2023-12-20T02:18:33;95248.78;;;2.48;60.63
61292;BME280;47165;42.664;23.368;2023-12-20T02:20:58;95234.28;;;2.44;60.67
61292;BME280;47165;42.664;23.368;2023-12-20T02:23:24;95244.44;;;2.51;60.53
61292;BME280;47165;42.664;23.368;2023-12-20T02:25:49;95242.66;;;2.53;60.79
61292;BME280;47165;42.664;23.368;2023-12-20T02:28:15;95246.88;;;2.57;60.26
61292;BME280;47165;42.664;23.368;2023-12-20T02:30:41;95244.25;;;2.60;60.42
61292;BME280;47165;42.664;23.368;2023-12-20T02:33:12;95233.84;;;2.64;59.99
61292;BME280;47165;42.664;23.368;2023-12-20T02:35:38;95228.69;;;2.64;59.79
61292;BME280;47165;42.664;23.368;2023-12-20T02:38:04;95226.94;;;2.66;59.35
61292;BME280;47165;42.664;23.368;2023-12-20T02:40:29;95223.53;;;2.64;59.23
61292;BME280;47165;42.664;23.368;2023-12-20T02:42:54;95227.00;;;2.63;58.83
61292;BME280;47165;42.664;23.368;2023-12-20T02:45:20;95225.25;;;2.65;58.65
61292;BME280;47165;42.664;23.368;2023-12-20T02:47:45;95216.63;;;2.66;58.94
61292;BME280;47165;42.664;23.368;2023-12-20T02:50:10;95214.97;;;2.63;58.78
61292;BME280;47165;42.664;23.368;2023-12-20T02:52:36;95220.16;;;2.61;58.19
61292;BME280;47165;42.664;23.368;2023-12-20T02:55:02;95224.47;;;2.61;58.25
61292;BME280;47165;42.664;23.368;2023-12-20T02:57:27;95219.34;;;2.59;58.58
61292;BME280;47165;42.664;23.368;2023-12-20T02:59:53;95215.06;;;2.58;58.24
61292;BME280;47165;42.664;23.368;2023-12-20T03:02:18;95220.22;;;2.58;58.29
61292;BME280;47165;42.664;23.368;2023-12-20T03:04:44;95215.06;;;2.58;58.76
61292;BME280;47165;42.664;23.368;2023-12-20T03:07:09;95210.75;;;2.59;58.24
61292;BME280;47165;42.664;23.368;2023-12-20T03:09:35;95216.03;;;2.54;58.53
61292;BME280;47165;42.664;23.368;2023-12-20T03:12:00;95211.75;;;2.53;59.20
61292;BME280;47165;42.664;23.368;2023-12-20T03:14:26;95222.94;;;2.52;58.89
61292;BME280;47165;42.664;23.368;2023-12-20T03:16:51;95213.44;;;2.54;58.64
61292;BME280;47165;42.664;23.368;2023-12-20T03:19:18;95212.72;;;2.48;58.43
61292;BME280;47165;42.664;23.368;2023-12-20T03:21:44;95213.63;;;2.45;58.57
61292;BME280;47165;42.664;23.368;2023-12-20T03:24:10;95204.31;;;2.39;58.17
61292;BME280;47165;42.664;23.368;2023-12-20T03:26:35;95216.31;;;2.40;59.04
61292;BME280;47165;42.664;23.368;2023-12-20T03:29:01;95205.25;;;2.35;59.08
61292;BME280;47165;42.664;23.368;2023-12-20T03:31:26;95206.16;;;2.34;59.95
61292;BME280;47165;42.664;23.368;2023-12-20T03:33:52;95196.69;;;2.35;58.94
61292;BME280;47165;42.664;23.368;2023-12-20T03:36:19;95202.00;;;2.27;58.75
61292;BME280;47165;42.664;23.368;2023-12-20T03:38:45;95203.72;;;2.27;59.88
61292;BME280;47165;42.664;23.368;2023-12-20T03:41:11;95197.66;;;2.29;60.19
61292;BME280;47165;42.664;23.368;2023-12-20T03:43:36;95198.53;;;2.30;59.76
61292;BME280;47165;42.664;23.368;2023-12-20T03:46:02;95196.81;;;2.29;59.05
61292;BME280;47165;42.664;23.368;2023-12-20T03:48:29;95193.44;;;2.27;59.93
61292;BME280;47165;42.664;23.368;2023-12-20T03:50:54;95202.88;;;2.26;58.40
61292;BME280;47165;42.664;23.368;2023-12-20T03:53:20;95190.00;;;2.26;58.64
61292;BME280;47165;42.664;23.368;2023-12-20T03:55:45;95189.09;;;2.29;59.37
61292;BME280;47165;42.664;23.368;2023-12-20T03:58:11;95184.06;;;2.22;58.97
61292;BME280;47165;42.664;23.368;2023-12-20T04:00:36;95183.97;;;2.27;59.81
61292;BME280;47165;42.664;23.368;2023-12-20T04:03:02;95162.59;;;2.24;59.50
61292;BME280;47165;42.664;23.368;2023-12-20T04:05:27;95179.59;;;2.31;58.45
61292;BME280;47165;42.664;23.368;2023-12-20T04:07:53;95175.38;;;2.27;58.61
61292;BME280;47165;42.664;23.368;2023-12-20T04:10:18;95175.38;;;2.27;59.07
61292;BME280;47165;42.664;23.368;2023-12-20T04:12:44;95174.56;;;2.25;59.05
61292;BME280;47165;42.664;23.368;2023-12-20T04:15:09;95172.75;;;2.30;60.11
61292;BME280;47165;42.664;23.368;2023-12-20T04:17:36;95171.81;;;2.34;58.29
61292;BME280;47165;42.664;23.368;2023-12-20T04:20:02;95162.53;;;2.25;57.68
61292;BME280;47165;42.664;23.368;2023-12-20T04:22:27;95165.06;;;2.28;58.57
61292;BME280;47165;42.664;23.368;2023-12-20T04:24:53;95159.94;;;2.27;58.39
61292;BME280;47165;42.664;23.368;2023-12-20T04:27:18;95158.16;;;2.29;59.34
61292;BME280;47165;42.664;23.368;2023-12-20T04:29:44;95165.06;;;2.28;58.85
61292;BME280;47165;42.664;23.368;2023-12-20T04:32:09;95158.13;;;2.32;58.62
61292;BME280;47165;42.664;23.368;2023-12-20T04:34:34;95146.91;;;2.33;58.19
61292;BME280;47165;42.664;23.368;2023-12-20T04:37:00;95147.06;;;2.27;57.63
61292;BME280;47165;42.664;23.368;2023-12-20T04:39:27;95145.44;;;2.22;57.15
61292;BME280;47165;42.664;23.368;2023-12-20T04:41:52;95148.03;;;2.21;56.59
61292;BME280;47165;42.664;23.368;2023-12-20T04:44:17;95147.31;;;2.16;57.63
61292;BME280;47165;42.664;23.368;2023-12-20T04:46:43;95140.53;;;2.12;57.35
61292;BME280;47165;42.664;23.368;2023-12-20T04:49:08;95150.13;;;2.05;57.90
61292;BME280;47165;42.664;23.368;2023-12-20T04:51:34;95142.38;;;2.05;58.38
61292;BME280;47165;42.664;23.368;2023-12-20T04:54:00;95140.75;;;2.01;58.12
61292;BME280;47165;42.664;23.368;2023-12-20T04:56:26;95145.94;;;1.99;58.60
61292;BME280;47165;42.664;23.368;2023-12-20T04:58:51;95151.91;;;2.01;59.17
61292;BME280;47165;42.664;23.368;2023-12-20T05:01:16;95141.72;;;1.95;59.13
61292;BME280;47165;42.664;23.368;2023-12-20T05:03:42;95137.28;;;2.02;59.41
61292;BME280;47165;42.664;23.368;2023-12-20T05:06:08;95135.75;;;1.95;59.99
61292;BME280;47165;42.664;23.368;2023-12-20T05:08:33;95141.72;;;1.97;61.58
61292;BME280;47165;42.664;23.368;2023-12-20T05:10:58;95133.91;;;2.00;61.51
61292;BME280;47165;42.664;23.368;2023-12-20T05:13:24;95133.06;;;1.99;61.39
61292;BME280;47165;42.664;23.368;2023-12-20T05:15:50;95134.78;;;1.99;61.85
61292;BME280;47165;42.664;23.368;2023-12-20T05:18:16;95129.81;;;1.91;62.17
61292;BME280;47165;42.664;23.368;2023-12-20T05:20:42;95126.28;;;1.95;62.47
61292;BME280;47165;42.664;23.368;2023-12-20T05:23:08;95131.53;;;1.91;62.92
61292;BME280;47165;42.664;23.368;2023-12-20T05:25:33;95128.22;;;1.84;63.39
61292;BME280;47165;42.664;23.368;2023-12-20T05:27:58;95130.78;;;1.86;63.10
61292;BME280;47165;42.664;23.368;2023-12-20T05:30:24;95113.66;;;1.83;63.74
61292;BME280;47165;42.664;23.368;2023-12-20T05:32:49;95114.47;;;1.87;63.67
61292;BME280;47165;42.664;23.368;2023-12-20T05:35:15;95115.28;;;1.89;64.23
61292;BME280;47165;42.664;23.368;2023-12-20T05:37:41;95116.13;;;1.89;63.85
61292;BME280;47165;42.664;23.368;2023-12-20T05:40:07;95118.72;;;1.88;64.64
61292;BME280;47165;42.664;23.368;2023-12-20T05:42:36;95110.03;;;1.92;64.66
61292;BME280;47165;42.664;23.368;2023-12-20T05:45:01;95118.59;;;1.92;64.76
61292;BME280;47165;42.664;23.368;2023-12-20T05:47:27;95109.13;;;1.94;65.04
61292;BME280;47165;42.664;23.368;2023-12-20T05:49:52;95102.22;;;1.96;64.53
61292;BME280;47165;42.664;23.368;2023-12-20T05:52:18;95103.91;;;1.99;64.82
61292;BME280;47165;42.664;23.368;2023-12-20T05:54:43;95102.13;;;2.01;64.86
61292;BME280;47165;42.664;23.368;2023-12-20T05:57:09;95102.16;;;1.99;64.62
61292;BME280;47165;42.664;23.368;2023-12-20T05:59:34;95098.75;;;1.99;64.53
61292;BME280;47165;42.664;23.368;2023-12-20T06:02:00;95095.25;;;2.01;64.80
61292;BME280;47165;42.664;23.368;2023-12-20T06:04:26;95096.03;;;2.05;65.20
61292;BME280;47165;42.664;23.368;2023-12-20T06:06:51;95086.56;;;2.06;65.52
61292;BME280;47165;42.664;23.368;2023-12-20T06:09:17;95089.06;;;2.09;65.64
61292;BME280;47165;42.664;23.368;2023-12-20T06:11:42;95096.75;;;2.10;64.83
61292;BME280;47165;42.664;23.368;2023-12-20T06:14:08;95089.81;;;2.14;64.48
61292;BME280;47165;42.664;23.368;2023-12-20T06:16:33;95086.34;;;2.15;64.91
61292;BME280;47165;42.664;23.368;2023-12-20T06:18:59;95095.66;;;2.20;64.88
61292;BME280;47165;42.664;23.368;2023-12-20T06:21:24;95099.97;;;2.21;65.02
61292;BME280;47165;42.664;23.368;2023-12-20T06:23:50;95105.94;;;2.22;64.81
61292;BME280;47165;42.664;23.368;2023-12-20T06:26:15;95099.19;;;2.16;64.75
61292;BME280;47165;42.664;23.368;2023-12-20T06:28:41;95099.03;;;2.24;64.95
61292;BME280;47165;42.664;23.368;2023-12-20T06:31:06;95104.16;;;2.26;64.80
61292;BME280;47165;42.664;23.368;2023-12-20T06:33:31;95106.78;;;2.22;64.85
61292;BME280;47165;42.664;23.368;2023-12-20T06:35:57;95096.31;;;2.30;64.85
61292;BME280;47165;42.664;23.368;2023-12-20T06:38:22;95091.97;;;2.32;64.86
61292;BME280;47165;42.664;23.368;2023-12-20T06:40:48;95095.38;;;2.33;64.88
61292;BME280;47165;42.664;23.368;2023-12-20T06:43:14;95087.63;;;2.34;65.02
61292;BME280;47165;42.664;23.368;2023-12-20T06:45:39;95094.53;;;2.34;65.19
61292;BME280;47165;42.664;23.368;2023-12-20T06:48:05;95085.03;;;2.36;64.87
61292;BME280;47165;42.664;23.368;2023-12-20T06:50:31;95078.00;;;2.41;64.88
61292;BME280;47165;42.664;23.368;2023-12-20T06:52:56;95079.66;;;2.44;64.36
61292;BME280;47165;42.664;23.368;2023-12-20T06:55:22;95075.38;;;2.44;64.19
61292;BME280;47165;42.664;23.368;2023-12-20T06:57:48;95080.44;;;2.47;64.43
61292;BME280;47165;42.664;23.368;2023-12-20T07:00:14;95077.81;;;2.50;63.89
61292;BME280;47165;42.664;23.368;2023-12-20T07:02:40;95078.78;;;2.46;63.51
61292;BME280;47165;42.664;23.368;2023-12-20T07:05:05;95072.50;;;2.56;63.69
61292;BME280;47165;42.664;23.368;2023-12-20T07:07:31;95067.19;;;2.63;63.66
61292;BME280;47165;42.664;23.368;2023-12-20T07:09:57;95065.34;;;2.68;63.92
61292;BME280;47165;42.664;23.368;2023-12-20T07:12:22;95055.94;;;2.67;63.22
61292;BME280;47165;42.664;23.368;2023-12-20T07:14:48;95053.13;;;2.74;63.29
61292;BME280;47165;42.664;23.368;2023-12-20T07:17:13;95059.84;;;2.81;63.14
61292;BME280;47165;42.664;23.368;2023-12-20T07:19:41;95054.72;;;2.80;62.85
61292;BME280;47165;42.664;23.368;2023-12-20T07:22:06;95066.78;;;2.78;63.09
61292;BME280;47165;42.664;23.368;2023-12-20T07:24:32;95061.09;;;2.65;62.89
61292;BME280;47165;42.664;23.368;2023-12-20T07:27:02;95043.09;;;2.64;63.42
61292;BME280;47165;42.664;23.368;2023-12-20T07:29:27;95048.19;;;2.67;63.27
61292;BME280;47165;42.664;23.368;2023-12-20T07:31:53;95039.91;;;2.54;63.42
61292;BME280;47165;42.664;23.368;2023-12-20T07:34:20;95044.19;;;2.55;63.74
61292;BME280;47165;42.664;23.368;2023-12-20T07:36:46;95045.06;;;2.54;63.82
61292;BME280;47165;42.664;23.368;2023-12-20T07:39:11;95047.69;;;2.52;64.03
61292;BME280;47165;42.664;23.368;2023-12-20T07:41:37;95045.31;;;2.43;64.66
61292;BME280;47165;42.664;23.368;2023-12-20T07:44:04;95051.25;;;2.47;64.36
61292;BME280;47165;42.664;23.368;2023-12-20T07:46:29;95053.16;;;2.40;65.01
61292;BME280;47165;42.664;23.368;2023-12-20T07:48:55;95058.34;;;2.38;65.12
61292;BME280;47165;42.664;23.368;2023-12-20T07:51:20;95052.13;;;2.46;65.16
61292;BME280;47165;42.664;23.368;2023-12-20T07:53:46;95041.28;;;2.33;65.92
61292;BME280;47165;42.664;23.368;2023-12-20T07:56:19;95035.84;;;2.45;65.80
61292;BME280;47165;42.664;23.368;2023-12-20T07:58:45;95036.09;;;2.34;65.76
61292;BME280;47165;42.664;23.368;2023-12-20T08:01:11;95042.25;;;2.29;66.27
61292;BME280;47165;42.664;23.368;2023-12-20T08:03:38;95031.38;;;2.17;66.40
61292;BME280;47165;42.664;23.368;2023-12-20T08:06:03;95037.09;;;2.29;66.30
61292;BME280;47165;42.664;23.368;2023-12-20T08:08:29;95040.34;;;2.35;66.27
61292;BME280;47165;42.664;23.368;2023-12-20T08:10:54;95036.94;;;2.35;66.65
61292;BME280;47165;42.664;23.368;2023-12-20T08:13:20;95034.41;;;2.33;66.93
61292;BME280;47165;42.664;23.368;2023-12-20T08:15:50;95031.78;;;2.35;67.20
61292;BME280;47165;42.664;23.368;2023-12-20T08:18:15;95028.50;;;2.30;67.53
61292;BME280;47165;42.664;23.368;2023-12-20T08:20:41;95022.28;;;2.37;67.85
61292;BME280;47165;42.664;23.368;2023-12-20T08:23:06;95019.75;;;2.35;68.33
61292;BME280;47165;42.664;23.368;2023-12-20T08:25:32;95025.69;;;2.39;68.16
61292;BME280;47165;42.664;23.368;2023-12-20T08:27:57;95019.41;;;2.49;68.18
61292;BME280;47165;42.664;23.368;2023-12-20T08:30:23;95023.72;;;2.49;68.45
61292;BME280;47165;42.664;23.368;2023-12-20T08:32:48;95016.03;;;2.47;69.18
61292;BME280;47165;42.664;23.368;2023-12-20T08:35:14;95002.84;;;2.58;68.89
61292;BME280;47165;42.664;23.368;2023-12-20T08:37:39;95005.34;;;2.63;68.96
61292;BME280;47165;42.664;23.368;2023-12-20T08:40:06;94995.75;;;2.66;68.89
61292;BME280;47165;42.664;23.368;2023-12-20T08:42:31;94999.31;;;2.62;68.94
61292;BME280;47165;42.664;23.368;2023-12-20T08:44:57;94996.53;;;2.70;68.53
61292;BME280;47165;42.664;23.368;2023-12-20T08:47:26;94981.00;;;2.73;68.75
61292;BME280;47165;42.664;23.368;2023-12-20T08:49:52;94992.94;;;2.77;68.67
61292;BME280;47165;42.664;23.368;2023-12-20T08:52:22;94983.34;;;2.80;68.55
61292;BME280;47165;42.664;23.368;2023-12-20T08:54:48;94990.22;;;2.81;68.49
61292;BME280;47165;42.664;23.368;2023-12-20T08:57:14;94984.22;;;2.81;68.65
61292;BME280;47165;42.664;23.368;2023-12-20T08:59:39;94984.94;;;2.86;68.11
61292;BME280;47165;42.664;23.368;2023-12-20T09:02:05;94983.34;;;2.80;69.15
61292;BME280;47165;42.664;23.368;2023-12-20T09:04:30;94963.59;;;2.81;68.87
61292;BME280;47165;42.664;23.368;2023-12-20T09:06:55;94963.50;;;2.84;68.80
61292;BME280;47165;42.664;23.368;2023-12-20T09:09:21;94952.25;;;2.87;68.93
61292;BME280;47165;42.664;23.368;2023-12-20T09:11:46;94941.94;;;2.87;69.24
61292;BME280;47165;42.664;23.368;2023-12-20T09:14:13;94929.78;;;2.92;69.44
61292;BME280;47165;42.664;23.368;2023-12-20T09:16:39;94921.19;;;2.91;69.85
61292;BME280;47165;42.664;23.368;2023-12-20T09:19:05;94918.50;;;2.94;69.82
61292;BME280;47165;42.664;23.368;2023-12-20T09:21:30;94906.19;;;3.04;69.32
61292;BME280;47165;42.664;23.368;2023-12-20T09:23:56;94896.03;;;2.99;69.15
61292;BME280;47165;42.664;23.368;2023-12-20T09:26:21;94902.00;;;3.01;69.55
61292;BME280;47165;42.664;23.368;2023-12-20T09:28:47;94897.34;;;3.13;69.23
61292;BME280;47165;42.664;23.368;2023-12-20T09:31:13;94897.16;;;3.19;68.98
61292;BME280;47165;42.664;23.368;2023-12-20T09:33:38;94895.38;;;3.21;69.26
61292;BME280;47165;42.664;23.368;2023-12-20T09:36:04;94888.44;;;3.23;69.34
61292;BME280;47165;42.664;23.368;2023-12-20T09:38:30;94881.69;;;3.19;69.20
61292;BME280;47165;42.664;23.368;2023-12-20T09:40:56;94863.59;;;3.20;69.34
61292;BME280;47165;42.664;23.368;2023-12-20T09:43:24;94864.22;;;3.27;69.75
61292;BME280;47165;42.664;23.368;2023-12-20T09:45:53;94860.84;;;3.25;69.55
61292;BME280;47165;42.664;23.368;2023-12-20T09:48:19;94863.44;;;3.25;69.49
61292;BME280;47165;42.664;23.368;2023-12-20T09:50:45;94852.03;;;3.32;69.70
61292;BME280;47165;42.664;23.368;2023-12-20T09:53:15;94849.31;;;3.37;69.28
61292;BME280;47165;42.664;23.368;2023-12-20T09:55:41;94845.75;;;3.41;69.48
61292;BME280;47165;42.664;23.368;2023-12-20T09:58:07;94845.41;;;3.52;69.35
61292;BME280;47165;42.664;23.368;2023-12-20T10:00:37;94846.94;;;3.57;68.80
61292;BME280;47165;42.664;23.368;2023-12-20T10:03:03;94841.78;;;3.57;69.52
61292;BME280;47165;42.664;23.368;2023-12-20T10:05:31;94839.78;;;3.66;69.74
61292;BME280;47165;42.664;23.368;2023-12-20T10:07:58;94843.72;;;3.77;69.47
61292;BME280;47165;42.664;23.368;2023-12-20T10:10:24;94827.84;;;3.88;69.49
61292;BME280;47165;42.664;23.368;2023-12-20T10:13:10;94815.88;;;4.11;68.93
61292;BME280;47165;42.664;23.368;2023-12-20T10:15:36;94801.06;;;4.16;68.43
61292;BME280;47165;42.664;23.368;2023-12-20T10:18:03;94817.94;;;4.26;68.15
61292;BME280;47165;42.664;23.368;2023-12-20T10:20:30;94806.31;;;4.38;68.07
61292;BME280;47165;42.664;23.368;2023-12-20T10:22:56;94793.72;;;4.52;67.93
61292;BME280;47165;42.664;23.368;2023-12-20T10:25:21;94784.09;;;4.79;67.31
61292;BME280;47165;42.664;23.368;2023-12-20T10:27:47;94785.91;;;4.99;66.76
61292;BME280;47165;42.664;23.368;2023-12-20T10:30:16;94772.94;;;5.23;66.17
61292;BME280;47165;42.664;23.368;2023-12-20T10:32:41;94772.06;;;5.44;65.41
61292;BME280;47165;42.664;23.368;2023-12-20T10:35:08;94775.34;;;5.70;64.67
61292;BME280;47165;42.664;23.368;2023-12-20T10:37:37;94773.34;;;5.97;63.92
61292;BME280;47165;42.664;23.368;2023-12-20T10:40:04;94771.63;;;6.17;62.80
61292;BME280;47165;42.664;23.368;2023-12-20T10:42:31;94760.47;;;6.35;61.97
61292;BME280;47165;42.664;23.368;2023-12-20T10:45:00;94744.78;;;6.57;61.71
61292;BME280;47165;42.664;23.368;2023-12-20T10:47:25;94737.75;;;6.78;61.28
61292;BME280;47165;42.664;23.368;2023-12-20T10:49:52;94732.41;;;7.00;60.61
61292;BME280;47165;42.664;23.368;2023-12-20T10:52:19;94740.09;;;7.21;60.53
61292;BME280;47165;42.664;23.368;2023-12-20T10:54:47;94736.38;;;7.44;59.23
61292;BME280;47165;42.664;23.368;2023-12-20T10:57:13;94734.09;;;7.55;58.68
61292;BME280;47165;42.664;23.368;2023-12-20T10:59:39;94721.56;;;7.63;57.75
61292;BME280;47165;42.664;23.368;2023-12-20T11:02:05;94725.78;;;7.83;57.30
61292;BME280;47165;42.664;23.368;2023-12-20T11:04:56;94708.75;;;8.11;56.67
61292;BME280;47165;42.664;23.368;2023-12-20T11:07:48;94709.03;;;8.22;55.44
61292;BME280;47165;42.664;23.368;2023-12-20T11:10:29;94709.88;;;8.23;54.70
61292;BME280;47165;42.664;23.368;2023-12-20T11:13:17;94704.56;;;8.42;54.63
61292;BME280;47165;42.664;23.368;2023-12-20T11:15:45;94708.47;;;8.33;54.11
61292;BME280;47165;42.664;23.368;2023-12-20T11:18:11;94686.22;;;8.27;53.99
61292;BME280;47165;42.664;23.368;2023-12-20T11:20:38;94689.13;;;8.21;54.51
61292;BME280;47165;42.664;23.368;2023-12-20T11:23:04;94685.03;;;8.17;54.63
61292;BME280;47165;42.664;23.368;2023-12-20T11:25:29;94675.00;;;8.10;55.17
61292;BME280;47165;42.664;23.368;2023-12-20T11:28:11;94671.63;;;8.25;55.03
61292;BME280;47165;42.664;23.368;2023-12-20T11:30:46;94673.63;;;8.36;54.85
61292;BME280;47165;42.664;23.368;2023-12-20T11:33:13;94658.22;;;8.49;54.63
61292;BME280;47165;42.664;23.368;2023-12-20T11:35:39;94637.75;;;8.42;54.38
61292;BME280;47165;42.664;23.368;2023-12-20T11:38:10;94645.53;;;8.26;54.37
61292;BME280;47165;42.664;23.368;2023-12-20T11:40:36;94632.19;;;8.17;54.63
61292;BME280;47165;42.664;23.368;2023-12-20T11:43:03;94629.28;;;8.05;54.59
61292;BME280;47165;42.664;23.368;2023-12-20T11:45:30;94640.34;;;7.93;54.83
61292;BME280;47165;42.664;23.368;2023-12-20T11:47:57;94636.78;;;7.78;55.15
61292;BME280;47165;42.664;23.368;2023-12-20T11:50:23;94631.16;;;7.70;55.51
61292;BME280;47165;42.664;23.368;2023-12-20T11:52:50;94621.63;;;7.53;56.11
61292;BME280;47165;42.664;23.368;2023-12-20T11:55:17;94619.97;;;7.35;56.24
61292;BME280;47165;42.664;23.368;2023-12-20T11:57:43;94613.47;;;7.43;56.84
61292;BME280;47165;42.664;23.368;2023-12-20T12:00:13;94605.22;;;7.53;57.08
61292;BME280;47165;42.664;23.368;2023-12-20T12:02:39;94600.28;;;7.64;56.80
61292;BME280;47165;42.664;23.368;2023-12-20T12:05:05;94591.84;;;7.76;56.67
61292;BME280;47165;42.664;23.368;2023-12-20T12:07:33;94590.69;;;7.82;56.93
61292;BME280;47165;42.664;23.368;2023-12-20T12:09:59;94585.84;;;8.07;56.84
61292;BME280;47165;42.664;23.368;2023-12-20T12:12:25;94580.50;;;8.26;56.61
61292;BME280;47165;42.664;23.368;2023-12-20T12:14:53;94566.34;;;8.48;56.05
61292;BME280;47165;42.664;23.368;2023-12-20T12:17:18;94574.63;;;8.71;55.19
61292;BME280;47165;42.664;23.368;2023-12-20T12:19:44;94564.09;;;8.88;54.19
61292;BME280;47165;42.664;23.368;2023-12-20T12:22:14;94560.59;;;9.03;54.19
61292;BME280;47165;42.664;23.368;2023-12-20T12:24:41;94556.09;;;9.21;54.06
61292;BME280;47165;42.664;23.368;2023-12-20T12:27:07;94544.09;;;9.33;53.78
61292;BME280;47165;42.664;23.368;2023-12-20T12:29:36;94547.09;;;9.56;53.57
61292;BME280;47165;42.664;23.368;2023-12-20T12:32:06;94546.06;;;9.73;53.23
61292;BME280;47165;42.664;23.368;2023-12-20T12:34:32;94542.44;;;9.75;52.47
61292;BME280;47165;42.664;23.368;2023-12-20T12:36:59;94547.72;;;9.88;52.38
61292;BME280;47165;42.664;23.368;2023-12-20T12:39:25;94556.94;;;10.08;52.27
61292;BME280;47165;42.664;23.368;2023-12-20T12:41:51;94533.81;;;10.31;52.12
61292;BME280;47165;42.664;23.368;2023-12-20T12:44:16;94528.38;;;10.48;51.73
61292;BME280;47165;42.664;23.368;2023-12-20T12:46:43;94534.66;;;10.58;51.21
61292;BME280;47165;42.664;23.368;2023-12-20T12:49:10;94536.53;;;10.56;50.93
61292;BME280;47165;42.664;23.368;2023-12-20T12:51:35;94531.59;;;10.52;50.33
61292;BME280;47165;42.664;23.368;2023-12-20T12:54:00;94536.38;;;10.45;50.37